メリダ の空港の天気 - METARとTAF

マヌエル・クレセンシオ・レホン国際空港 ( MMMD / MID ) - メキシコ ユカタン州メリダ
飛行場実況気象(Metar)
観測時間02/05 13:45 CST (02/05 19:45 UTC)
風向・風速北 3m/s
視程10km以上
天気現象
全天の8割程度の雲 雲底高度 550m
気温27℃
湿度62%
気圧1019hPa
METARMMMD 051945Z 36006KT 7SM BKN018 27/19 A3010 RMK 8/100 MDT CU SC AC
過去の天気等 Google飛行場航空写真 Wunderground天気予報

過去48時間のMETAR

飛行場予報(TAF)
発表時間: 2/05 10:59 CST (2/05 16:59 UTC)
予報対象時間: 5日12時 CST ~ 6日12時 CST
風向・風速北北東 5m/s
視程10km以上
全天の8割程度の雲 雲底高度 460m
全天を覆う雲 雲底高度 1220m
5日14時 CST ~ 5日18時 CST に一時的に
視程6440m
天気現象しゅう雨 雨
5日20時 CST から
風向・風速東北東 3m/s
視程10km以上
全天の8割程度の雲 雲底高度 610m
6日4時 CST から 確率 40% で
視程8050m
天気現象
6日10時 CST から
風向・風速東 5m/s
視程10km以上
全天の8割程度の雲 雲底高度 610m
TAF MMMD 051659Z 0518/0618 03010KT P6SM BKN015 OVC040 TX26/0519Z TN21/0612Z
TEMPO 0520/0524 4SM SH RA
FM060200 06005KT P6SM BKN020
PROB40 0610/0614 5SM RA
FM061600 08010KT P6SM BKN020